sensor_id;sensor_type;location;lat;lon;timestamp;P1;durP1;ratioP1;P2;durP2;ratioP2
20635;SDS011;10477;43.198;27.916;2022-08-01T00:02:06;65.83;;;60.73;;
20635;SDS011;10477;43.198;27.916;2022-08-01T00:04:34;63.90;;;58.80;;
20635;SDS011;10477;43.198;27.916;2022-08-01T00:07:01;66.03;;;60.83;;
20635;SDS011;10477;43.198;27.916;2022-08-01T00:09:29;65.47;;;60.30;;
20635;SDS011;10477;43.198;27.916;2022-08-01T00:11:57;68.50;;;63.10;;
20635;SDS011;10477;43.198;27.916;2022-08-01T00:14:24;62.23;;;57.23;;
20635;SDS011;10477;43.198;27.916;2022-08-01T00:16:52;60.20;;;55.30;;
20635;SDS011;10477;43.198;27.916;2022-08-01T00:19:20;62.47;;;57.47;;
20635;SDS011;10477;43.198;27.916;2022-08-01T00:21:47;63.30;;;58.30;;
20635;SDS011;10477;43.198;27.916;2022-08-01T00:24:15;62.50;;;57.60;;
20635;SDS011;10477;43.198;27.916;2022-08-01T00:26:43;58.43;;;53.73;;
20635;SDS011;10477;43.198;27.916;2022-08-01T00:29:10;58.87;;;54.17;;
20635;SDS011;10477;43.198;27.916;2022-08-01T00:31:38;64.83;;;59.73;;
20635;SDS011;10477;43.198;27.916;2022-08-01T00:34:06;59.30;;;54.50;;
20635;SDS011;10477;43.198;27.916;2022-08-01T00:36:33;58.47;;;53.77;;
20635;SDS011;10477;43.198;27.916;2022-08-01T00:39:01;56.37;;;51.77;;
20635;SDS011;10477;43.198;27.916;2022-08-01T00:41:28;58.53;;;53.87;;
20635;SDS011;10477;43.198;27.916;2022-08-01T00:43:58;57.70;;;53.20;;
20635;SDS011;10477;43.198;27.916;2022-08-01T00:46:27;56.80;;;52.50;;
20635;SDS011;10477;43.198;27.916;2022-08-01T00:48:56;55.87;;;51.67;;
20635;SDS011;10477;43.198;27.916;2022-08-01T00:51:25;54.53;;;50.40;;
20635;SDS011;10477;43.198;27.916;2022-08-01T00:53:54;54.70;;;50.60;;
20635;SDS011;10477;43.198;27.916;2022-08-01T00:56:24;55.13;;;50.97;;
20635;SDS011;10477;43.198;27.916;2022-08-01T00:58:54;59.30;;;54.90;;
20635;SDS011;10477;43.198;27.916;2022-08-01T01:01:22;54.97;;;50.97;;
20635;SDS011;10477;43.198;27.916;2022-08-01T01:03:51;54.10;;;50.10;;
20635;SDS011;10477;43.198;27.916;2022-08-01T01:09:29;51.77;;;47.77;;
20635;SDS011;10477;43.198;27.916;2022-08-01T01:12:15;53.40;;;49.30;;
20635;SDS011;10477;43.198;27.916;2022-08-01T01:14:52;54.63;;;50.50;;
20635;SDS011;10477;43.198;27.916;2022-08-01T01:17:33;53.20;;;49.10;;
20635;SDS011;10477;43.198;27.916;2022-08-01T01:20:03;55.10;;;50.90;;
20635;SDS011;10477;43.198;27.916;2022-08-01T01:22:36;54.63;;;50.50;;
20635;SDS011;10477;43.198;27.916;2022-08-01T01:28:06;51.60;;;47.50;;
20635;SDS011;10477;43.198;27.916;2022-08-01T01:30:33;52.87;;;48.67;;
20635;SDS011;10477;43.198;27.916;2022-08-01T01:33:03;57.07;;;52.67;;
20635;SDS011;10477;43.198;27.916;2022-08-01T01:35:34;54.13;;;49.83;;
20635;SDS011;10477;43.198;27.916;2022-08-01T01:38:05;53.03;;;48.87;;
20635;SDS011;10477;43.198;27.916;2022-08-01T01:40:37;55.12;;;50.78;;
20635;SDS011;10477;43.198;27.916;2022-08-01T01:43:06;54.63;;;50.43;;
20635;SDS011;10477;43.198;27.916;2022-08-01T01:45:38;52.90;;;49.00;;
20635;SDS011;10477;43.198;27.916;2022-08-01T01:48:06;54.17;;;50.37;;
20635;SDS011;10477;43.198;27.916;2022-08-01T01:50:36;52.93;;;49.30;;
20635;SDS011;10477;43.198;27.916;2022-08-01T01:53:05;52.10;;;48.50;;
20635;SDS011;10477;43.198;27.916;2022-08-01T01:55:37;53.03;;;49.53;;
20635;SDS011;10477;43.198;27.916;2022-08-01T01:58:06;46.47;;;43.27;;
20635;SDS011;10477;43.198;27.916;2022-08-01T02:00:35;43.53;;;40.47;;
20635;SDS011;10477;43.198;27.916;2022-08-01T02:03:07;39.17;;;36.47;;
20635;SDS011;10477;43.198;27.916;2022-08-01T02:05:37;37.70;;;35.07;;
20635;SDS011;10477;43.198;27.916;2022-08-01T02:08:08;35.40;;;32.90;;
20635;SDS011;10477;43.198;27.916;2022-08-01T02:10:38;31.23;;;29.03;;
20635;SDS011;10477;43.198;27.916;2022-08-01T02:13:07;30.23;;;27.93;;
20635;SDS011;10477;43.198;27.916;2022-08-01T02:15:38;25.90;;;23.90;;
20635;SDS011;10477;43.198;27.916;2022-08-01T02:18:05;28.10;;;25.90;;
20635;SDS011;10477;43.198;27.916;2022-08-01T02:20:37;24.63;;;22.63;;
20635;SDS011;10477;43.198;27.916;2022-08-01T02:23:07;25.60;;;23.60;;
20635;SDS011;10477;43.198;27.916;2022-08-01T02:28:15;24.80;;;22.80;;
20635;SDS011;10477;43.198;27.916;2022-08-01T02:30:47;25.60;;;23.60;;
20635;SDS011;10477;43.198;27.916;2022-08-01T02:33:27;26.30;;;24.20;;
20635;SDS011;10477;43.198;27.916;2022-08-01T02:35:54;26.30;;;24.20;;
20635;SDS011;10477;43.198;27.916;2022-08-01T02:38:23;24.33;;;22.33;;
20635;SDS011;10477;43.198;27.916;2022-08-01T02:40:54;23.90;;;22.00;;
20635;SDS011;10477;43.198;27.916;2022-08-01T02:43:24;23.80;;;21.80;;
20635;SDS011;10477;43.198;27.916;2022-08-01T02:45:56;24.30;;;22.30;;
20635;SDS011;10477;43.198;27.916;2022-08-01T02:48:25;26.17;;;24.17;;
20635;SDS011;10477;43.198;27.916;2022-08-01T02:50:57;24.13;;;22.23;;
20635;SDS011;10477;43.198;27.916;2022-08-01T02:53:25;24.50;;;22.50;;
20635;SDS011;10477;43.198;27.916;2022-08-01T02:55:56;26.60;;;24.50;;
20635;SDS011;10477;43.198;27.916;2022-08-01T02:58:25;27.10;;;24.90;;
20635;SDS011;10477;43.198;27.916;2022-08-01T03:00:53;25.30;;;23.30;;
20635;SDS011;10477;43.198;27.916;2022-08-01T03:03:24;25.32;;;23.25;;
20635;SDS011;10477;43.198;27.916;2022-08-01T03:05:52;27.57;;;25.33;;
20635;SDS011;10477;43.198;27.916;2022-08-01T03:08:20;26.53;;;24.43;;
20635;SDS011;10477;43.198;27.916;2022-08-01T03:10:50;26.73;;;24.60;;
20635;SDS011;10477;43.198;27.916;2022-08-01T03:13:20;25.80;;;23.70;;
20635;SDS011;10477;43.198;27.916;2022-08-01T03:15:50;25.63;;;23.43;;
20635;SDS011;10477;43.198;27.916;2022-08-01T03:18:20;28.00;;;25.70;;
20635;SDS011;10477;43.198;27.916;2022-08-01T03:20:50;27.83;;;25.53;;
20635;SDS011;10477;43.198;27.916;2022-08-01T03:23:21;28.13;;;25.83;;
20635;SDS011;10477;43.198;27.916;2022-08-01T03:25:50;27.37;;;25.17;;
20635;SDS011;10477;43.198;27.916;2022-08-01T03:28:19;28.80;;;26.40;;
20635;SDS011;10477;43.198;27.916;2022-08-01T03:30:51;29.20;;;26.80;;
20635;SDS011;10477;43.198;27.916;2022-08-01T03:33:18;27.73;;;25.43;;
20635;SDS011;10477;43.198;27.916;2022-08-01T03:35:47;28.52;;;26.12;;
20635;SDS011;10477;43.198;27.916;2022-08-01T03:38:21;27.48;;;25.15;;
20635;SDS011;10477;43.198;27.916;2022-08-01T03:40:58;30.73;;;28.23;;
20635;SDS011;10477;43.198;27.916;2022-08-01T03:43:29;29.10;;;26.60;;
20635;SDS011;10477;43.198;27.916;2022-08-01T03:45:55;27.20;;;24.90;;
20635;SDS011;10477;43.198;27.916;2022-08-01T03:48:28;27.35;;;25.05;;
20635;SDS011;10477;43.198;27.916;2022-08-01T03:50:57;27.67;;;25.37;;
20635;SDS011;10477;43.198;27.916;2022-08-01T03:53:26;29.45;;;27.05;;
20635;SDS011;10477;43.198;27.916;2022-08-01T03:55:56;28.77;;;26.37;;
20635;SDS011;10477;43.198;27.916;2022-08-01T03:58:27;30.30;;;27.82;;
20635;SDS011;10477;43.198;27.916;2022-08-01T04:00:56;28.05;;;25.85;;
20635;SDS011;10477;43.198;27.916;2022-08-01T04:03:25;30.90;;;28.30;;
20635;SDS011;10477;43.198;27.916;2022-08-01T04:05:54;36.28;;;33.45;;
20635;SDS011;10477;43.198;27.916;2022-08-01T04:08:21;29.20;;;26.80;;
20635;SDS011;10477;43.198;27.916;2022-08-01T04:10:49;28.12;;;25.82;;
20635;SDS011;10477;43.198;27.916;2022-08-01T04:13:17;28.30;;;26.00;;
20635;SDS011;10477;43.198;27.916;2022-08-01T04:15:46;29.05;;;26.75;;
20635;SDS011;10477;43.198;27.916;2022-08-01T04:18:13;28.50;;;26.10;;
20635;SDS011;10477;43.198;27.916;2022-08-01T04:20:41;29.57;;;27.30;;
20635;SDS011;10477;43.198;27.916;2022-08-01T04:23:09;27.85;;;25.55;;
20635;SDS011;10477;43.198;27.916;2022-08-01T04:25:38;25.85;;;23.65;;
20635;SDS011;10477;43.198;27.916;2022-08-01T04:28:08;29.52;;;27.07;;
20635;SDS011;10477;43.198;27.916;2022-08-01T04:30:40;28.00;;;25.70;;
20635;SDS011;10477;43.198;27.916;2022-08-01T04:33:11;35.78;;;33.08;;
20635;SDS011;10477;43.198;27.916;2022-08-01T04:35:46;26.45;;;24.43;;
20635;SDS011;10477;43.198;27.916;2022-08-01T04:38:12;25.88;;;23.87;;
20635;SDS011;10477;43.198;27.916;2022-08-01T04:40:43;34.80;;;32.28;;
20635;SDS011;10477;43.198;27.916;2022-08-01T04:43:11;25.72;;;23.77;;
20635;SDS011;10477;43.198;27.916;2022-08-01T04:45:39;30.05;;;27.77;;
20635;SDS011;10477;43.198;27.916;2022-08-01T04:48:09;27.13;;;25.12;;
20635;SDS011;10477;43.198;27.916;2022-08-01T04:50:37;27.62;;;25.62;;
20635;SDS011;10477;43.198;27.916;2022-08-01T04:53:08;26.73;;;24.72;;
20635;SDS011;10477;43.198;27.916;2022-08-01T04:55:37;28.75;;;26.65;;
20635;SDS011;10477;43.198;27.916;2022-08-01T04:58:04;27.45;;;25.45;;
20635;SDS011;10477;43.198;27.916;2022-08-01T05:00:32;29.45;;;27.25;;
20635;SDS011;10477;43.198;27.916;2022-08-01T05:03:00;29.48;;;27.05;;
20635;SDS011;10477;43.198;27.916;2022-08-01T05:05:29;30.30;;;28.12;;
20635;SDS011;10477;43.198;27.916;2022-08-01T05:07:57;30.02;;;27.82;;
20635;SDS011;10477;43.198;27.916;2022-08-01T05:10:26;25.65;;;23.65;;
20635;SDS011;10477;43.198;27.916;2022-08-01T05:12:55;25.88;;;23.87;;
20635;SDS011;10477;43.198;27.916;2022-08-01T05:15:23;26.80;;;24.80;;
20635;SDS011;10477;43.198;27.916;2022-08-01T05:17:50;34.58;;;32.08;;
20635;SDS011;10477;43.198;27.916;2022-08-01T05:20:18;25.52;;;23.52;;
20635;SDS011;10477;43.198;27.916;2022-08-01T05:22:47;24.65;;;22.75;;
20635;SDS011;10477;43.198;27.916;2022-08-01T05:25:15;26.25;;;24.25;;
20635;SDS011;10477;43.198;27.916;2022-08-01T05:27:43;24.47;;;22.58;;
20635;SDS011;10477;43.198;27.916;2022-08-01T05:30:11;34.53;;;32.05;;
20635;SDS011;10477;43.198;27.916;2022-08-01T05:32:40;24.85;;;22.87;;
20635;SDS011;10477;43.198;27.916;2022-08-01T05:35:09;24.82;;;22.85;;
20635;SDS011;10477;43.198;27.916;2022-08-01T05:37:36;33.40;;;30.50;;
20635;SDS011;10477;43.198;27.916;2022-08-01T05:40:05;25.30;;;23.38;;
20635;SDS011;10477;43.198;27.916;2022-08-01T05:42:33;27.07;;;24.90;;
20635;SDS011;10477;43.198;27.916;2022-08-01T05:45:00;31.77;;;29.57;;
20635;SDS011;10477;43.198;27.916;2022-08-01T05:47:28;29.23;;;27.02;;
20635;SDS011;10477;43.198;27.916;2022-08-01T05:49:56;27.80;;;25.75;;
20635;SDS011;10477;43.198;27.916;2022-08-01T05:52:24;28.70;;;26.40;;
20635;SDS011;10477;43.198;27.916;2022-08-01T05:54:51;32.70;;;30.40;;
20635;SDS011;10477;43.198;27.916;2022-08-01T05:57:19;26.50;;;24.50;;
20635;SDS011;10477;43.198;27.916;2022-08-01T05:59:47;28.05;;;25.62;;
20635;SDS011;10477;43.198;27.916;2022-08-01T06:02:15;25.90;;;23.95;;
20635;SDS011;10477;43.198;27.916;2022-08-01T06:04:43;24.52;;;22.62;;
20635;SDS011;10477;43.198;27.916;2022-08-01T06:07:11;29.15;;;25.15;;
20635;SDS011;10477;43.198;27.916;2022-08-01T06:09:39;26.52;;;24.52;;
20635;SDS011;10477;43.198;27.916;2022-08-01T06:12:06;32.60;;;30.30;;
20635;SDS011;10477;43.198;27.916;2022-08-01T06:14:35;25.88;;;23.95;;
20635;SDS011;10477;43.198;27.916;2022-08-01T06:17:02;24.10;;;22.30;;
20635;SDS011;10477;43.198;27.916;2022-08-01T06:19:30;25.43;;;23.52;;
20635;SDS011;10477;43.198;27.916;2022-08-01T06:21:58;26.07;;;24.07;;
20635;SDS011;10477;43.198;27.916;2022-08-01T06:24:26;24.57;;;22.67;;
20635;SDS011;10477;43.198;27.916;2022-08-01T06:26:53;25.92;;;24.00;;
20635;SDS011;10477;43.198;27.916;2022-08-01T06:29:21;24.47;;;22.73;;
20635;SDS011;10477;43.198;27.916;2022-08-01T06:31:49;25.97;;;24.15;;
20635;SDS011;10477;43.198;27.916;2022-08-01T06:34:17;31.85;;;29.67;;
20635;SDS011;10477;43.198;27.916;2022-08-01T06:36:45;24.25;;;22.35;;
20635;SDS011;10477;43.198;27.916;2022-08-01T06:39:15;23.95;;;22.22;;
20635;SDS011;10477;43.198;27.916;2022-08-01T06:41:42;24.60;;;22.60;;
20635;SDS011;10477;43.198;27.916;2022-08-01T06:44:12;23.73;;;22.02;;
20635;SDS011;10477;43.198;27.916;2022-08-01T06:46:40;23.30;;;21.70;;
20635;SDS011;10477;43.198;27.916;2022-08-01T06:49:08;22.05;;;20.35;;
20635;SDS011;10477;43.198;27.916;2022-08-01T06:51:36;22.70;;;21.00;;
20635;SDS011;10477;43.198;27.916;2022-08-01T06:54:04;24.40;;;22.40;;
20635;SDS011;10477;43.198;27.916;2022-08-01T06:56:32;24.40;;;22.25;;
20635;SDS011;10477;43.198;27.916;2022-08-01T06:59:00;23.95;;;22.25;;
20635;SDS011;10477;43.198;27.916;2022-08-01T07:01:30;22.00;;;20.40;;
20635;SDS011;10477;43.198;27.916;2022-08-01T07:03:57;21.02;;;19.42;;
20635;SDS011;10477;43.198;27.916;2022-08-01T07:06:26;22.07;;;20.48;;
20635;SDS011;10477;43.198;27.916;2022-08-01T07:08:53;24.30;;;22.52;;
20635;SDS011;10477;43.198;27.916;2022-08-01T07:11:22;21.70;;;20.00;;
20635;SDS011;10477;43.198;27.916;2022-08-01T07:13:50;22.07;;;20.33;;
20635;SDS011;10477;43.198;27.916;2022-08-01T07:16:17;22.90;;;21.10;;
20635;SDS011;10477;43.198;27.916;2022-08-01T07:18:46;22.35;;;20.77;;
20635;SDS011;10477;43.198;27.916;2022-08-01T07:21:13;21.57;;;20.08;;
20635;SDS011;10477;43.198;27.916;2022-08-01T07:23:41;21.40;;;19.85;;
20635;SDS011;10477;43.198;27.916;2022-08-01T07:26:11;21.50;;;19.90;;
20635;SDS011;10477;43.198;27.916;2022-08-01T07:28:39;22.10;;;20.60;;
20635;SDS011;10477;43.198;27.916;2022-08-01T07:31:07;22.90;;;21.30;;
20635;SDS011;10477;43.198;27.916;2022-08-01T07:33:35;21.33;;;19.80;;
20635;SDS011;10477;43.198;27.916;2022-08-01T07:36:05;22.15;;;20.48;;
20635;SDS011;10477;43.198;27.916;2022-08-01T07:38:33;23.55;;;21.45;;
20635;SDS011;10477;43.198;27.916;2022-08-01T07:41:01;21.60;;;20.10;;
20635;SDS011;10477;43.198;27.916;2022-08-01T07:43:30;26.62;;;24.82;;
20635;SDS011;10477;43.198;27.916;2022-08-01T07:45:58;21.50;;;19.92;;
20635;SDS011;10477;43.198;27.916;2022-08-01T07:48:25;21.30;;;19.70;;
20635;SDS011;10477;43.198;27.916;2022-08-01T07:50:54;21.17;;;19.65;;
20635;SDS011;10477;43.198;27.916;2022-08-01T07:53:22;23.07;;;21.48;;
20635;SDS011;10477;43.198;27.916;2022-08-01T07:55:52;22.82;;;21.12;;
20635;SDS011;10477;43.198;27.916;2022-08-01T07:58:19;21.48;;;19.77;;
20635;SDS011;10477;43.198;27.916;2022-08-01T08:00:47;25.82;;;23.95;;
20635;SDS011;10477;43.198;27.916;2022-08-01T08:03:15;26.45;;;24.23;;
20635;SDS011;10477;43.198;27.916;2022-08-01T08:05:43;21.62;;;20.12;;
20635;SDS011;10477;43.198;27.916;2022-08-01T08:08:11;20.72;;;19.23;;
20635;SDS011;10477;43.198;27.916;2022-08-01T08:10:40;23.18;;;21.15;;
20635;SDS011;10477;43.198;27.916;2022-08-01T08:13:07;21.10;;;19.60;;
20635;SDS011;10477;43.198;27.916;2022-08-01T08:15:35;22.15;;;20.55;;
20635;SDS011;10477;43.198;27.916;2022-08-01T08:18:03;20.20;;;18.70;;
20635;SDS011;10477;43.198;27.916;2022-08-01T08:20:31;21.45;;;19.85;;
20635;SDS011;10477;43.198;27.916;2022-08-01T08:22:59;22.35;;;20.48;;
20635;SDS011;10477;43.198;27.916;2022-08-01T08:25:29;22.02;;;20.15;;
20635;SDS011;10477;43.198;27.916;2022-08-01T08:27:56;20.95;;;19.45;;
20635;SDS011;10477;43.198;27.916;2022-08-01T08:30:24;19.82;;;18.42;;
20635;SDS011;10477;43.198;27.916;2022-08-01T08:32:51;20.60;;;19.10;;
20635;SDS011;10477;43.198;27.916;2022-08-01T08:35:19;21.85;;;20.15;;
20635;SDS011;10477;43.198;27.916;2022-08-01T08:37:47;23.80;;;22.00;;
20635;SDS011;10477;43.198;27.916;2022-08-01T08:40:15;20.52;;;19.02;;
20635;SDS011;10477;43.198;27.916;2022-08-01T08:42:43;20.50;;;19.00;;
20635;SDS011;10477;43.198;27.916;2022-08-01T08:45:12;20.95;;;19.40;;
20635;SDS011;10477;43.198;27.916;2022-08-01T08:47:40;20.80;;;19.30;;
20635;SDS011;10477;43.198;27.916;2022-08-01T08:50:11;22.52;;;20.92;;
20635;SDS011;10477;43.198;27.916;2022-08-01T08:52:40;21.05;;;19.45;;
20635;SDS011;10477;43.198;27.916;2022-08-01T08:55:09;21.37;;;19.70;;
20635;SDS011;10477;43.198;27.916;2022-08-01T08:57:40;21.00;;;19.40;;
20635;SDS011;10477;43.198;27.916;2022-08-01T09:00:11;20.85;;;19.35;;
20635;SDS011;10477;43.198;27.916;2022-08-01T09:02:43;21.60;;;19.90;;
20635;SDS011;10477;43.198;27.916;2022-08-01T09:05:14;20.48;;;18.87;;
20635;SDS011;10477;43.198;27.916;2022-08-01T09:07:43;21.82;;;20.05;;
20635;SDS011;10477;43.198;27.916;2022-08-01T09:10:10;20.72;;;19.12;;
20635;SDS011;10477;43.198;27.916;2022-08-01T09:12:38;22.65;;;20.85;;
20635;SDS011;10477;43.198;27.916;2022-08-01T09:15:07;21.30;;;19.60;;
20635;SDS011;10477;43.198;27.916;2022-08-01T09:17:39;21.52;;;19.73;;
20635;SDS011;10477;43.198;27.916;2022-08-01T09:20:27;21.07;;;19.37;;
20635;SDS011;10477;43.198;27.916;2022-08-01T09:22:56;21.85;;;20.15;;
20635;SDS011;10477;43.198;27.916;2022-08-01T09:25:24;22.50;;;20.70;;
20635;SDS011;10477;43.198;27.916;2022-08-01T09:28:01;20.17;;;18.57;;
20635;SDS011;10477;43.198;27.916;2022-08-01T09:30:38;22.13;;;20.32;;
20635;SDS011;10477;43.198;27.916;2022-08-01T09:33:07;21.10;;;19.40;;
20635;SDS011;10477;43.198;27.916;2022-08-01T09:35:36;22.07;;;20.37;;
20635;SDS011;10477;43.198;27.916;2022-08-01T09:38:13;20.50;;;18.80;;
20635;SDS011;10477;43.198;27.916;2022-08-01T09:40:45;20.75;;;19.05;;
20635;SDS011;10477;43.198;27.916;2022-08-01T09:43:14;20.55;;;18.95;;
20635;SDS011;10477;43.198;27.916;2022-08-01T09:45:43;20.15;;;18.55;;
20635;SDS011;10477;43.198;27.916;2022-08-01T09:48:11;20.72;;;19.12;;
20635;SDS011;10477;43.198;27.916;2022-08-01T09:50:39;20.52;;;18.77;;
20635;SDS011;10477;43.198;27.916;2022-08-01T09:53:10;20.88;;;19.27;;
20635;SDS011;10477;43.198;27.916;2022-08-01T09:55:40;20.80;;;19.30;;
20635;SDS011;10477;43.198;27.916;2022-08-01T09:58:11;20.00;;;18.50;;
20635;SDS011;10477;43.198;27.916;2022-08-01T10:00:39;20.80;;;19.20;;
20635;SDS011;10477;43.198;27.916;2022-08-01T10:03:23;19.85;;;18.35;;
20635;SDS011;10477;43.198;27.916;2022-08-01T10:05:52;20.60;;;19.10;;
20635;SDS011;10477;43.198;27.916;2022-08-01T10:08:22;20.30;;;18.80;;
20635;SDS011;10477;43.198;27.916;2022-08-01T10:11:08;19.82;;;18.32;;
20635;SDS011;10477;43.198;27.916;2022-08-01T10:13:37;19.90;;;18.40;;
20635;SDS011;10477;43.198;27.916;2022-08-01T10:16:06;19.42;;;17.92;;
20635;SDS011;10477;43.198;27.916;2022-08-01T10:18:35;20.27;;;18.77;;
20635;SDS011;10477;43.198;27.916;2022-08-01T10:21:05;19.85;;;18.35;;
20635;SDS011;10477;43.198;27.916;2022-08-01T10:23:34;22.82;;;21.02;;
20635;SDS011;10477;43.198;27.916;2022-08-01T10:26:05;21.45;;;19.95;;
20635;SDS011;10477;43.198;27.916;2022-08-01T10:28:35;20.15;;;18.65;;
20635;SDS011;10477;43.198;27.916;2022-08-01T10:31:05;22.85;;;21.07;;
20635;SDS011;10477;43.198;27.916;2022-08-01T10:33:34;19.70;;;18.30;;
20635;SDS011;10477;43.198;27.916;2022-08-01T10:36:04;19.60;;;18.20;;
20635;SDS011;10477;43.198;27.916;2022-08-01T10:38:33;19.40;;;17.90;;
20635;SDS011;10477;43.198;27.916;2022-08-01T10:41:02;19.50;;;18.10;;
20635;SDS011;10477;43.198;27.916;2022-08-01T10:43:31;19.48;;;17.98;;
20635;SDS011;10477;43.198;27.916;2022-08-01T10:45:59;20.52;;;18.92;;
20635;SDS011;10477;43.198;27.916;2022-08-01T10:48:31;20.00;;;18.60;;
20635;SDS011;10477;43.198;27.916;2022-08-01T10:51:03;19.65;;;18.25;;
20635;SDS011;10477;43.198;27.916;2022-08-01T10:53:32;19.52;;;18.02;;
20635;SDS011;10477;43.198;27.916;2022-08-01T10:56:00;19.65;;;18.12;;
20635;SDS011;10477;43.198;27.916;2022-08-01T11:03:56;20.00;;;18.40;;
20635;SDS011;10477;43.198;27.916;2022-08-01T11:06:41;19.75;;;18.25;;
20635;SDS011;10477;43.198;27.916;2022-08-01T11:11:59;20.32;;;18.73;;
20635;SDS011;10477;43.198;27.916;2022-08-01T11:14:31;21.27;;;19.67;;
20635;SDS011;10477;43.198;27.916;2022-08-01T11:20:13;20.32;;;18.82;;
20635;SDS011;10477;43.198;27.916;2022-08-01T11:33:16;20.68;;;18.65;;
20635;SDS011;10477;43.198;27.916;2022-08-01T11:39:10;21.25;;;19.55;;
20635;SDS011;10477;43.198;27.916;2022-08-01T11:41:22;20.27;;;18.77;;
20635;SDS011;10477;43.198;27.916;2022-08-01T11:43:59;19.80;;;18.30;;
20635;SDS011;10477;43.198;27.916;2022-08-01T11:57:10;19.77;;;18.27;;
20635;SDS011;10477;43.198;27.916;2022-08-01T11:59:43;19.00;;;17.60;;
20635;SDS011;10477;43.198;27.916;2022-08-01T12:02:24;19.82;;;18.42;;
20635;SDS011;10477;43.198;27.916;2022-08-01T12:04:54;19.02;;;17.62;;
20635;SDS011;10477;43.198;27.916;2022-08-01T12:07:27;18.17;;;16.77;;
20635;SDS011;10477;43.198;27.916;2022-08-01T12:10:02;17.73;;;16.42;;
20635;SDS011;10477;43.198;27.916;2022-08-01T12:12:32;19.63;;;18.13;;
20635;SDS011;10477;43.198;27.916;2022-08-01T12:15:03;18.73;;;17.32;;
20635;SDS011;10477;43.198;27.916;2022-08-01T12:17:36;18.62;;;17.23;;
20635;SDS011;10477;43.198;27.916;2022-08-01T12:20:10;18.67;;;17.27;;
20635;SDS011;10477;43.198;27.916;2022-08-01T12:22:42;19.15;;;17.75;;
20635;SDS011;10477;43.198;27.916;2022-08-01T12:25:11;18.80;;;17.40;;
20635;SDS011;10477;43.198;27.916;2022-08-01T12:27:41;18.90;;;17.50;;
20635;SDS011;10477;43.198;27.916;2022-08-01T12:30:11;19.45;;;18.05;;
20635;SDS011;10477;43.198;27.916;2022-08-01T12:32:42;18.80;;;17.40;;
20635;SDS011;10477;43.198;27.916;2022-08-01T12:35:16;20.00;;;18.40;;
20635;SDS011;10477;43.198;27.916;2022-08-01T12:38:01;18.12;;;16.80;;
20635;SDS011;10477;43.198;27.916;2022-08-01T12:40:43;21.45;;;19.85;;
20635;SDS011;10477;43.198;27.916;2022-08-01T12:43:16;20.27;;;18.77;;
20635;SDS011;10477;43.198;27.916;2022-08-01T12:45:47;21.10;;;19.60;;
20635;SDS011;10477;43.198;27.916;2022-08-01T12:48:18;20.68;;;18.75;;
20635;SDS011;10477;43.198;27.916;2022-08-01T12:50:51;19.92;;;18.52;;
20635;SDS011;10477;43.198;27.916;2022-08-01T12:53:16;19.85;;;18.45;;
20635;SDS011;10477;43.198;27.916;2022-08-01T12:55:48;21.57;;;19.98;;
20635;SDS011;10477;43.198;27.916;2022-08-01T12:58:19;19.77;;;18.27;;
20635;SDS011;10477;43.198;27.916;2022-08-01T13:00:48;19.17;;;17.67;;
20635;SDS011;10477;43.198;27.916;2022-08-01T13:03:18;19.30;;;17.90;;
20635;SDS011;10477;43.198;27.916;2022-08-01T13:05:48;19.02;;;17.60;;
20635;SDS011;10477;43.198;27.916;2022-08-01T13:08:21;20.17;;;18.67;;
20635;SDS011;10477;43.198;27.916;2022-08-01T13:10:53;18.60;;;17.20;;
20635;SDS011;10477;43.198;27.916;2022-08-01T13:13:21;19.42;;;18.02;;
20635;SDS011;10477;43.198;27.916;2022-08-01T13:15:49;18.98;;;17.57;;
20635;SDS011;10477;43.198;27.916;2022-08-01T13:21:07;19.35;;;17.95;;
20635;SDS011;10477;43.198;27.916;2022-08-01T13:24:05;18.90;;;17.50;;
20635;SDS011;10477;43.198;27.916;2022-08-01T13:26:41;18.75;;;17.35;;
20635;SDS011;10477;43.198;27.916;2022-08-01T13:29:14;22.98;;;20.95;;
20635;SDS011;10477;43.198;27.916;2022-08-01T13:31:44;21.02;;;19.32;;
20635;SDS011;10477;43.198;27.916;2022-08-01T13:34:12;22.62;;;21.00;;
20635;SDS011;10477;43.198;27.916;2022-08-01T13:36:40;18.87;;;17.48;;
20635;SDS011;10477;43.198;27.916;2022-08-01T13:39:08;20.95;;;19.35;;
20635;SDS011;10477;43.198;27.916;2022-08-01T13:41:55;21.00;;;19.50;;
20635;SDS011;10477;43.198;27.916;2022-08-01T13:44:25;20.30;;;18.90;;
20635;SDS011;10477;43.198;27.916;2022-08-01T13:46:53;22.10;;;20.52;;
20635;SDS011;10477;43.198;27.916;2022-08-01T13:49:22;19.23;;;17.82;;
20635;SDS011;10477;43.198;27.916;2022-08-01T13:51:50;20.70;;;19.20;;
20635;SDS011;10477;43.198;27.916;2022-08-01T13:54:18;27.32;;;25.30;;
20635;SDS011;10477;43.198;27.916;2022-08-01T13:56:46;19.45;;;18.05;;
20635;SDS011;10477;43.198;27.916;2022-08-01T13:59:14;19.95;;;18.45;;
20635;SDS011;10477;43.198;27.916;2022-08-01T14:01:42;18.60;;;17.30;;
20635;SDS011;10477;43.198;27.916;2022-08-01T14:04:10;19.85;;;18.45;;
20635;SDS011;10477;43.198;27.916;2022-08-01T14:06:38;21.25;;;19.75;;
20635;SDS011;10477;43.198;27.916;2022-08-01T14:09:06;21.73;;;20.20;;
20635;SDS011;10477;43.198;27.916;2022-08-01T14:11:35;25.15;;;23.15;;
20635;SDS011;10477;43.198;27.916;2022-08-01T14:14:03;22.55;;;20.95;;
20635;SDS011;10477;43.198;27.916;2022-08-01T14:16:31;24.20;;;22.48;;
20635;SDS011;10477;43.198;27.916;2022-08-01T14:18:58;23.62;;;22.00;;
20635;SDS011;10477;43.198;27.916;2022-08-01T14:21:32;20.95;;;19.23;;
20635;SDS011;10477;43.198;27.916;2022-08-01T14:24:00;20.95;;;19.45;;
20635;SDS011;10477;43.198;27.916;2022-08-01T14:26:28;20.65;;;19.05;;
20635;SDS011;10477;43.198;27.916;2022-08-01T14:28:55;21.55;;;19.95;;
20635;SDS011;10477;43.198;27.916;2022-08-01T14:31:23;21.33;;;19.73;;
20635;SDS011;10477;43.198;27.916;2022-08-01T14:33:51;20.02;;;18.42;;
20635;SDS011;10477;43.198;27.916;2022-08-01T14:36:18;22.15;;;20.25;;
20635;SDS011;10477;43.198;27.916;2022-08-01T14:38:46;20.72;;;19.12;;
20635;SDS011;10477;43.198;27.916;2022-08-01T14:41:14;20.72;;;19.20;;
20635;SDS011;10477;43.198;27.916;2022-08-01T14:43:41;20.12;;;18.62;;
20635;SDS011;10477;43.198;27.916;2022-08-01T14:46:10;20.85;;;19.35;;
20635;SDS011;10477;43.198;27.916;2022-08-01T14:48:38;20.50;;;19.00;;
20635;SDS011;10477;43.198;27.916;2022-08-01T14:51:07;20.08;;;18.67;;
20635;SDS011;10477;43.198;27.916;2022-08-01T14:53:35;21.52;;;19.92;;
20635;SDS011;10477;43.198;27.916;2022-08-01T14:56:03;20.82;;;19.32;;
20635;SDS011;10477;43.198;27.916;2022-08-01T14:58:32;19.15;;;17.85;;
20635;SDS011;10477;43.198;27.916;2022-08-01T15:00:59;19.60;;;18.20;;
20635;SDS011;10477;43.198;27.916;2022-08-01T15:03:29;21.33;;;19.82;;
20635;SDS011;10477;43.198;27.916;2022-08-01T15:05:57;22.20;;;20.50;;
20635;SDS011;10477;43.198;27.916;2022-08-01T15:08:25;21.45;;;19.95;;
20635;SDS011;10477;43.198;27.916;2022-08-01T15:10:55;23.83;;;22.07;;